createdAt,value
2023-04-12T00:00:30.538Z,-0.5
2023-04-12T00:05:30.611Z,-0.7
2023-04-12T00:10:19.550Z,-0.9
2023-04-12T00:15:25.675Z,-0.9
2023-04-12T00:20:31.727Z,-0.9
2023-04-12T00:25:21.282Z,-1.0
2023-04-12T00:30:26.752Z,-1.0
2023-04-12T00:35:32.793Z,-0.8
2023-04-12T00:40:23.133Z,-0.9
2023-04-12T00:45:27.974Z,-1.1
2023-04-12T00:50:16.920Z,-1.1
2023-04-12T00:55:22.960Z,-1.0
2023-04-12T01:00:30.803Z,-1.1
2023-04-12T01:05:17.485Z,-1.0
2023-04-12T01:10:23.683Z,-1.0
2023-04-12T01:15:29.799Z,-1.0
2023-04-12T01:20:18.705Z,-1.0
2023-04-12T01:25:24.888Z,-0.8
2023-04-12T01:30:30.737Z,-0.8
2023-04-12T01:35:19.726Z,-1.0
2023-04-12T01:40:26.324Z,-1.0
2023-04-12T01:45:31.571Z,-0.9
2023-04-12T01:50:20.551Z,-0.9
2023-04-12T01:55:26.601Z,-0.8
2023-04-12T02:00:36.164Z,-0.2
2023-04-12T02:05:22.048Z,-0.1
2023-04-12T02:10:28.089Z,-0.2
2023-04-12T02:15:17.135Z,-0.2
2023-04-12T02:20:24.084Z,0.1
2023-04-12T02:25:29.216Z,0.2
2023-04-12T02:30:18.209Z,0.3
2023-04-12T02:35:24.368Z,0.6
2023-04-12T02:40:30.043Z,0.7
2023-04-12T02:45:19.129Z,0.9
2023-04-12T02:50:25.131Z,0.9
2023-04-12T02:55:31.117Z,1.1
2023-04-12T03:00:20.376Z,1.1
2023-04-12T03:05:25.637Z,1.2
2023-04-12T03:10:31.654Z,1.3
2023-04-12T03:15:20.575Z,1.4
2023-04-12T03:20:27.075Z,1.5
2023-04-12T03:25:32.770Z,1.5
2023-04-12T03:30:21.751Z,1.5
2023-04-12T03:35:27.871Z,1.5
2023-04-12T03:40:17.792Z,1.5
2023-04-12T03:45:22.474Z,1.5
2023-04-12T03:50:28.539Z,1.5
2023-04-12T03:55:17.531Z,1.4
2023-04-12T04:00:27.531Z,1.4
2023-04-12T04:05:29.733Z,1.2
2023-04-12T04:10:18.752Z,1.0
2023-04-12T04:15:24.871Z,0.9
2023-04-12T04:20:31.371Z,1.0
2023-04-12T04:25:19.939Z,1.0
2023-04-12T04:30:25.964Z,1.0
2023-04-12T04:35:32.047Z,0.9
2023-04-12T04:40:22.026Z,0.9
2023-04-12T04:45:28.817Z,1.0
2023-04-12T04:50:33.058Z,1.1
2023-04-12T04:55:22.139Z,1.1
2023-04-12T05:00:29.598Z,1.2
2023-04-12T05:05:16.214Z,1.6
2023-04-12T05:10:22.441Z,2.0
2023-04-12T05:15:28.538Z,2.2
2023-04-12T05:20:17.614Z,2.4
2023-04-12T05:25:23.565Z,2.7
2023-04-12T05:30:29.679Z,2.9
2023-04-12T05:35:19.441Z,3.1
2023-04-12T05:40:25.527Z,3.2
2023-04-12T05:45:30.310Z,3.3
2023-04-12T05:50:19.469Z,3.3
2023-04-12T05:55:25.459Z,3.3
2023-04-12T06:00:34.512Z,3.3
2023-04-12T06:05:20.999Z,3.3
2023-04-12T06:10:27.161Z,3.3
2023-04-12T06:15:33.096Z,3.4
2023-04-12T06:20:22.198Z,3.4
2023-04-12T06:25:28.404Z,3.4
2023-04-12T06:30:17.236Z,3.6
2023-04-12T06:35:23.717Z,3.8
2023-04-12T06:40:29.946Z,3.8
2023-04-12T06:45:17.907Z,4.0
2023-04-12T06:50:23.936Z,4.2
2023-04-12T06:55:30.129Z,4.2
2023-04-12T07:00:19.863Z,4.2
2023-04-12T07:05:24.388Z,4.2
2023-04-12T07:10:30.458Z,4.4
2023-04-12T07:15:19.485Z,4.3
2023-04-12T07:20:25.858Z,4.4
2023-04-12T07:25:31.619Z,4.6
2023-04-12T07:30:20.778Z,4.7
2023-04-12T07:35:27.439Z,4.8
2023-04-12T07:40:33.265Z,4.9
2023-04-12T07:45:22.276Z,5.0
2023-04-12T07:50:28.461Z,5.1
2023-04-12T07:55:17.262Z,5.1
2023-04-12T08:00:27.018Z,5.3
2023-04-12T08:05:29.010Z,5.4
2023-04-12T08:10:17.718Z,5.4
2023-04-12T08:15:23.764Z,5.5
2023-04-12T08:20:30.213Z,5.5
2023-04-12T08:25:19.011Z,5.6
2023-04-12T08:30:25.076Z,5.6
2023-04-12T08:35:31.147Z,5.7
2023-04-12T08:40:20.499Z,5.8
2023-04-12T08:45:27.948Z,5.9
2023-04-12T08:50:31.798Z,6.1
2023-04-12T08:55:20.826Z,6.2
2023-04-12T09:00:28.292Z,6.4
2023-04-12T09:05:33.380Z,6.4
2023-04-12T09:10:22.104Z,6.5
2023-04-12T09:15:28.007Z,6.6
2023-04-12T09:20:17.515Z,6.8
2023-04-12T09:25:23.249Z,6.7
2023-04-12T09:30:29.217Z,6.6
2023-04-12T09:35:18.376Z,6.6
2023-04-12T09:40:24.143Z,6.6
2023-04-12T09:45:30.104Z,6.8
2023-04-12T09:50:19.105Z,6.9
2023-04-12T09:55:25.222Z,6.8
2023-04-12T10:00:34.478Z,6.9
2023-04-12T10:05:19.731Z,6.9
2023-04-12T10:10:25.710Z,6.9
2023-04-12T10:15:31.730Z,6.9
2023-04-12T10:20:23.324Z,6.9
2023-04-12T10:25:27.021Z,6.9
2023-04-12T10:30:32.738Z,7.0
2023-04-12T10:35:22.586Z,7.0
2023-04-12T10:40:27.438Z,7.1
2023-04-12T10:45:16.390Z,7.0
2023-04-12T10:50:24.247Z,7.1
2023-04-12T10:55:28.501Z,7.0
2023-04-12T11:00:17.663Z,7.1
2023-04-12T11:05:24.543Z,7.1
2023-04-12T11:10:29.821Z,7.0
2023-04-12T11:15:19.022Z,7.0
2023-04-12T11:20:25.385Z,6.8
2023-04-12T11:25:31.156Z,6.8
2023-04-12T11:30:20.214Z,6.7
2023-04-12T11:35:26.066Z,6.9
2023-04-12T11:40:32.001Z,7.4
2023-04-12T11:45:21.070Z,7.2
2023-04-12T11:50:27.206Z,7.1
2023-04-12T11:55:33.979Z,7.5
2023-04-12T12:00:27.478Z,7.6
2023-04-12T12:05:28.394Z,7.8
2023-04-12T12:10:31.709Z,7.6
2023-04-12T12:15:23.171Z,7.8
2023-04-12T12:20:29.426Z,7.6
2023-04-12T12:25:18.390Z,7.6
2023-04-12T12:30:24.347Z,7.6
2023-04-12T12:35:31.010Z,7.7
2023-04-12T12:40:20.993Z,7.5
2023-04-12T12:45:24.758Z,7.6
2023-04-12T12:50:30.802Z,7.8
2023-04-12T12:55:19.802Z,7.8
2023-04-12T13:00:27.358Z,7.9
2023-04-12T13:05:32.067Z,7.9
2023-04-12T13:10:21.117Z,8.0
2023-04-12T13:15:27.230Z,7.9
2023-04-12T13:20:33.531Z,8.0
2023-04-12T13:25:22.175Z,8.0
2023-04-12T13:30:28.380Z,7.9
2023-04-12T13:35:17.438Z,7.9
2023-04-12T13:40:24.797Z,8.1
2023-04-12T13:45:29.417Z,8.1
2023-04-12T13:50:18.171Z,8.2
2023-04-12T13:55:24.259Z,8.1
2023-04-12T14:00:34.336Z,8.0
2023-04-12T14:05:18.633Z,8.1
2023-04-12T14:10:24.673Z,8.3
2023-04-12T14:15:30.770Z,8.3
2023-04-12T14:20:20.761Z,8.3
2023-04-12T14:25:25.973Z,8.3
2023-04-12T14:30:32.037Z,8.2
2023-04-12T14:35:20.971Z,8.2
2023-04-12T14:40:27.046Z,8.4
2023-04-12T14:45:33.209Z,8.4
2023-04-12T14:50:22.174Z,8.4
2023-04-12T14:55:28.264Z,8.5
2023-04-12T15:00:17.753Z,8.5
2023-04-12T15:05:22.725Z,8.5
2023-04-12T15:10:28.851Z,8.9
2023-04-12T15:15:17.772Z,9.0
2023-04-12T15:20:23.982Z,9.0
2023-04-12T15:25:29.781Z,9.2
2023-04-12T15:30:18.969Z,9.4
2023-04-12T15:35:26.974Z,9.5
2023-04-12T15:40:30.541Z,9.5
2023-04-12T15:45:19.575Z,9.4
2023-04-12T15:50:25.615Z,9.4
2023-04-12T15:55:31.997Z,9.4
2023-04-12T16:00:24.259Z,9.4
2023-04-12T16:05:26.644Z,9.4
2023-04-12T16:10:32.572Z,9.5
2023-04-12T16:15:21.630Z,9.5
2023-04-12T16:20:27.858Z,9.5
2023-04-12T16:25:16.834Z,9.6
2023-04-12T16:30:23.193Z,9.6
2023-04-12T16:35:29.163Z,9.6
2023-04-12T16:40:17.939Z,9.7
2023-04-12T16:45:24.139Z,9.7
2023-04-12T16:50:31.986Z,9.7
2023-04-12T16:55:19.206Z,9.7
2023-04-12T17:00:26.882Z,9.7
2023-04-12T17:05:30.413Z,9.9
2023-04-12T17:10:19.380Z,9.9
2023-04-12T17:15:25.423Z,9.8
2023-04-12T17:20:31.661Z,9.8
2023-04-12T17:25:22.420Z,9.7
2023-04-12T17:30:26.727Z,9.6
2023-04-12T17:35:32.873Z,9.6
2023-04-12T17:40:21.880Z,9.5
2023-04-12T17:45:27.551Z,9.5
2023-04-12T17:50:16.563Z,9.5
2023-04-12T17:55:22.664Z,9.4
2023-04-12T18:00:32.262Z,9.4
2023-04-12T18:05:18.029Z,9.4
2023-04-12T18:10:24.118Z,9.3
2023-04-12T18:15:30.135Z,9.3
2023-04-12T18:20:20.057Z,9.3
2023-04-12T18:25:25.230Z,9.1
2023-04-12T18:30:31.617Z,9.1
2023-04-12T18:35:20.362Z,9.0
2023-04-12T18:40:26.430Z,9.0
2023-04-12T18:45:32.064Z,9.0
2023-04-12T18:50:22.038Z,8.9
2023-04-12T18:55:27.008Z,8.9
2023-04-12T19:00:33.164Z,8.9
2023-04-12T19:05:22.027Z,8.9
2023-04-12T19:10:28.357Z,8.9
2023-04-12T19:15:17.243Z,8.9
2023-04-12T19:20:23.679Z,8.9
2023-04-12T19:25:29.358Z,8.8
2023-04-12T19:30:18.258Z,8.8
2023-04-12T19:35:24.548Z,8.7
2023-04-12T19:40:31.231Z,8.7
2023-04-12T19:45:19.427Z,8.6
2023-04-12T19:50:25.635Z,8.6
2023-04-12T19:55:31.527Z,8.6
2023-04-12T20:00:23.627Z,8.6
2023-04-12T20:05:26.423Z,8.5
2023-04-12T20:10:32.440Z,8.5
2023-04-12T20:15:21.499Z,8.5
2023-04-12T20:20:27.747Z,8.5
2023-04-12T20:25:16.661Z,8.5
2023-04-12T20:30:22.788Z,8.5
2023-04-12T20:35:28.760Z,8.4
2023-04-12T20:40:18.957Z,8.3
2023-04-12T20:45:24.043Z,8.3
2023-04-12T20:50:29.887Z,8.2
2023-04-12T20:55:19.075Z,8.2
2023-04-12T21:00:26.448Z,8.1
2023-04-12T21:05:30.309Z,8.0
2023-04-12T21:10:19.364Z,8.1
2023-04-12T21:15:25.313Z,8.0
2023-04-12T21:20:31.498Z,7.9
2023-04-12T21:25:20.496Z,7.8
2023-04-12T21:30:26.645Z,7.7
2023-04-12T21:35:32.669Z,7.6
2023-04-12T21:40:22.807Z,7.6
2023-04-12T21:45:27.666Z,7.5
2023-04-12T21:50:16.530Z,7.5
2023-04-12T21:55:22.564Z,7.5
2023-04-12T22:00:32.265Z,7.5
2023-04-12T22:05:17.520Z,7.4
2023-04-12T22:10:23.627Z,7.4
2023-04-12T22:15:29.684Z,7.4
2023-04-12T22:20:20.181Z,7.3
2023-04-12T22:25:24.590Z,7.3
2023-04-12T22:30:30.819Z,7.3
2023-04-12T22:35:19.677Z,7.4
2023-04-12T22:40:26.128Z,7.3
2023-04-12T22:45:32.019Z,7.3
2023-04-12T22:50:20.863Z,7.3
2023-04-12T22:55:28.849Z,7.3
2023-04-12T23:00:33.099Z,7.3
2023-04-12T23:05:21.379Z,7.2
2023-04-12T23:10:27.392Z,7.2
2023-04-12T23:15:16.412Z,7.2
2023-04-12T23:20:23.553Z,7.1
2023-04-12T23:25:28.556Z,7.1
2023-04-12T23:30:17.611Z,7.1
2023-04-12T23:35:23.809Z,7.1
2023-04-12T23:40:29.750Z,7.1
2023-04-12T23:45:18.376Z,7.1
2023-04-12T23:50:24.929Z,7.1
2023-04-12T23:55:30.562Z,7.1
